Airfield :
LOGIN :

Register | Disclaimer

   EN    FR    IT 

 










Legend :    VFR   Marginal VFR   IFR   Intensive IFR   Very Intensive IFR
Visi :
Ceiling :
>= 8 km
>= 3000ft
5 to 8 km
1000 to 3000 ft
1500m to 5 km
500 to 1000 ft
800 to 1500m
200 to 500 ft
< 800m
< 200 ft
Symbols :   Thunderstorms  Fog  Heavy snow  Heavy precipitations  Wind > 20 kt
SIGMETs :     Misc.  Thunderstorms  Icing  Turbulence  Mountain Waves  Volcanic Ashes






- Airport Elevation : 287 ft


LFRL - Lanveoc Poulmic

CURRENT METAR :
  • 060030Z AUTO 26018G29KT 9999 OVC007 16/15 Q1004

EXPIRED METARs :
  • 060000Z AUTO 25020KT 7000 OVC006 15/15 Q1004
  • 052330Z AUTO 26018KT 4200 -RA BR BKN005 OVC011 15/15 Q1005
  • 052300Z AUTO 25021G32KT 7000 -RADZ BKN006 OVC010 15/15 Q1005
  • 052230Z AUTO 25019KT 7000 -RADZ OVC006 15/14 Q1005
  • 052200Z AUTO 25017G29KT 220V280 7000 BKN007 OVC012 16/15 Q1005

TAF AMD TAF LFRL
Valid from the 05 at 13:00 until the 06 at 12:00 UTC


051310Z 0513/0612 24015G25KT 9999 BKN020
TEMPO 0514/0604 25017G33KT
TEMPO 0513/0524 3000 SHRA BKN010 BKN012TCU



MET'MAP, your aeronautical weather chart ! - Copyright ORBIFLY December 2007 - Disclaimer

ORBIFLY MET'MAP TEAM :

Programming & Development : Alexandra Zaïnal
Concept & original design : Baudouin d'Aumeries
Assistance for programming : Marc-Olivier Méhu
Technical & hardware support : Manuel Goepfert

Contact : metmap@orbifly.com




SOURCES & CREDITS :

   NOAA